createdAt,value
2019-01-14T00:01:54.741Z,2.53
2019-01-14T00:04:21.327Z,2.77
2019-01-14T00:06:47.951Z,1.77
2019-01-14T00:09:14.570Z,1.90
2019-01-14T00:11:41.349Z,2.53
2019-01-14T00:14:07.971Z,2.10
2019-01-14T00:16:34.548Z,1.80
2019-01-14T00:19:01.274Z,1.67
2019-01-14T00:21:27.869Z,2.23
2019-01-14T00:23:54.513Z,1.70
2019-01-14T00:26:21.134Z,1.67
2019-01-14T00:28:47.792Z,2.13
2019-01-14T00:31:14.685Z,2.30
2019-01-14T00:33:41.252Z,1.87
2019-01-14T00:36:07.789Z,2.10
2019-01-14T00:38:34.428Z,1.90
2019-01-14T00:41:01.037Z,2.50
2019-01-14T00:43:27.630Z,2.77
2019-01-14T00:45:54.238Z,2.50
2019-01-14T00:48:20.694Z,3.07
2019-01-14T00:50:47.317Z,3.10
2019-01-14T00:53:13.892Z,3.00
2019-01-14T00:55:40.518Z,2.77
2019-01-14T00:58:07.143Z,2.50
2019-01-14T01:00:33.720Z,2.50
2019-01-14T01:03:01.505Z,3.13
2019-01-14T01:05:28.157Z,2.40
2019-01-14T01:07:54.825Z,3.10
2019-01-14T01:10:21.437Z,2.93
2019-01-14T01:12:48.058Z,3.37
2019-01-14T01:15:15.187Z,3.30
2019-01-14T01:17:41.757Z,3.60
2019-01-14T01:20:11.225Z,3.70
2019-01-14T01:22:37.870Z,3.40
2019-01-14T01:25:07.930Z,3.43
2019-01-14T01:27:34.565Z,4.10
2019-01-14T01:30:01.235Z,3.40
2019-01-14T01:32:27.634Z,3.60
2019-01-14T01:34:54.082Z,3.67
2019-01-14T01:37:22.489Z,3.60
2019-01-14T01:39:49.063Z,4.63
2019-01-14T01:42:15.476Z,3.80
2019-01-14T01:44:41.996Z,4.47
2019-01-14T01:47:08.638Z,5.00
2019-01-14T01:49:35.343Z,4.00
2019-01-14T01:52:01.946Z,4.40
2019-01-14T01:54:28.440Z,4.87
2019-01-14T01:56:55.020Z,4.87
2019-01-14T01:59:21.546Z,4.47
2019-01-14T02:01:48.054Z,5.00
2019-01-14T02:04:14.742Z,4.43
2019-01-14T02:06:41.904Z,5.13
2019-01-14T02:09:08.547Z,5.57
2019-01-14T02:11:35.122Z,5.50
2019-01-14T02:14:01.858Z,4.63
2019-01-14T02:16:28.571Z,5.20
2019-01-14T02:18:55.009Z,5.00
2019-01-14T02:21:21.619Z,5.60
2019-01-14T02:23:48.140Z,5.13
2019-01-14T02:26:14.591Z,5.40
2019-01-14T02:28:40.997Z,5.17
2019-01-14T02:31:07.583Z,5.20
2019-01-14T02:33:34.226Z,5.27
2019-01-14T02:36:00.910Z,5.03
2019-01-14T02:38:27.324Z,5.10
2019-01-14T02:40:53.848Z,3.97
2019-01-14T02:43:20.381Z,5.60
2019-01-14T02:45:46.765Z,4.47
2019-01-14T02:48:13.407Z,4.70
2019-01-14T02:50:39.909Z,4.80
2019-01-14T02:53:06.514Z,4.40
2019-01-14T02:55:33.042Z,4.30
2019-01-14T02:57:59.702Z,3.90
2019-01-14T03:00:26.699Z,4.10
2019-01-14T03:02:53.157Z,3.23
2019-01-14T03:05:19.775Z,4.00
2019-01-14T03:07:46.452Z,4.13
2019-01-14T03:10:13.486Z,3.80
2019-01-14T03:12:40.007Z,3.50
2019-01-14T03:15:09.034Z,3.33
2019-01-14T03:17:35.628Z,3.67
2019-01-14T03:20:07.578Z,3.87
2019-01-14T03:22:34.348Z,3.93
2019-01-14T03:25:00.997Z,4.07
2019-01-14T03:27:27.515Z,3.70
2019-01-14T03:29:54.140Z,3.30
2019-01-14T03:32:20.641Z,3.87
2019-01-14T03:34:47.267Z,3.70
2019-01-14T03:37:13.764Z,3.60
2019-01-14T03:39:40.274Z,3.40
2019-01-14T03:42:06.859Z,4.20
2019-01-14T03:44:33.488Z,3.43
2019-01-14T03:46:59.860Z,3.70
2019-01-14T03:49:26.500Z,3.83
2019-01-14T03:51:52.969Z,3.97
2019-01-14T03:54:19.659Z,4.10
2019-01-14T03:56:46.183Z,4.47
2019-01-14T03:59:12.871Z,3.67
2019-01-14T04:01:39.372Z,4.63
2019-01-14T04:04:05.959Z,4.00
2019-01-14T04:06:32.522Z,4.97
2019-01-14T04:08:59.025Z,4.23
2019-01-14T04:11:25.669Z,3.27
2019-01-14T04:13:52.279Z,3.43
2019-01-14T04:16:18.901Z,3.97
2019-01-14T04:18:45.315Z,3.27
2019-01-14T04:21:11.939Z,2.93
2019-01-14T04:23:38.535Z,3.23
2019-01-14T04:26:05.115Z,3.47
2019-01-14T04:28:31.501Z,4.07
2019-01-14T04:30:57.941Z,4.33
2019-01-14T04:33:25.347Z,4.90
2019-01-14T04:35:51.972Z,5.70
2019-01-14T04:38:18.553Z,7.53
2019-01-14T04:40:44.938Z,7.43
2019-01-14T04:43:11.424Z,7.23
2019-01-14T04:45:37.958Z,7.40
2019-01-14T04:48:04.780Z,6.50
2019-01-14T04:50:31.320Z,6.60
2019-01-14T04:52:57.912Z,5.13
2019-01-14T04:55:24.439Z,4.47
2019-01-14T04:57:51.126Z,4.03
2019-01-14T05:00:22.483Z,4.13
2019-01-14T05:02:49.318Z,3.70
2019-01-14T05:05:16.925Z,3.70
2019-01-14T05:07:43.770Z,3.27
2019-01-14T05:10:16.363Z,3.13
2019-01-14T05:12:43.036Z,3.03
2019-01-14T05:15:11.025Z,3.67
2019-01-14T05:17:37.651Z,4.17
2019-01-14T05:20:22.187Z,4.10
2019-01-14T05:22:48.880Z,4.43
2019-01-14T05:25:15.480Z,4.10
2019-01-14T05:27:42.095Z,4.37
2019-01-14T05:30:11.526Z,4.87
2019-01-14T05:32:38.139Z,5.60
2019-01-14T05:35:05.831Z,4.57
2019-01-14T05:37:37.333Z,5.33
2019-01-14T05:40:00.663Z,4.73
2019-01-14T05:42:27.469Z,5.43
2019-01-14T05:44:54.067Z,4.53
2019-01-14T05:47:20.604Z,4.50
2019-01-14T05:49:47.310Z,4.10
2019-01-14T05:52:13.920Z,3.93
2019-01-14T05:54:40.502Z,4.23
2019-01-14T05:57:07.295Z,4.20
2019-01-14T05:59:33.776Z,4.33
2019-01-14T06:02:00.419Z,4.03
2019-01-14T06:04:27.038Z,4.83
2019-01-14T06:06:53.586Z,4.80
2019-01-14T06:09:20.055Z,5.07
2019-01-14T06:11:46.833Z,5.93
2019-01-14T06:14:13.424Z,5.20
2019-01-14T06:16:40.035Z,5.80
2019-01-14T06:19:07.495Z,5.30
2019-01-14T06:21:34.142Z,3.60
2019-01-14T06:24:00.633Z,3.07
2019-01-14T06:26:27.370Z,3.77
2019-01-14T06:28:53.769Z,4.03
2019-01-14T06:31:20.415Z,4.50
2019-01-14T06:33:46.927Z,4.17
2019-01-14T06:36:13.645Z,3.80
2019-01-14T06:38:40.027Z,4.00
2019-01-14T06:41:06.643Z,4.27
2019-01-14T06:43:33.360Z,3.47
2019-01-14T06:45:59.982Z,3.47
2019-01-14T06:48:26.486Z,4.33
2019-01-14T06:50:53.104Z,3.73
2019-01-14T06:53:19.511Z,4.70
2019-01-14T06:55:46.164Z,4.33
2019-01-14T06:58:12.782Z,5.90
2019-01-14T07:00:39.655Z,7.53
2019-01-14T07:03:06.297Z,7.80
2019-01-14T07:05:32.848Z,7.60
2019-01-14T07:08:00.051Z,7.23
2019-01-14T07:10:27.789Z,8.10
2019-01-14T07:12:54.528Z,7.03
2019-01-14T07:15:21.114Z,6.97
2019-01-14T07:17:48.261Z,7.97
2019-01-14T07:20:15.674Z,9.00
2019-01-14T07:22:42.296Z,8.77
2019-01-14T07:25:08.884Z,8.27
2019-01-14T07:27:35.513Z,7.07
2019-01-14T07:30:05.735Z,7.90
2019-01-14T07:32:32.267Z,5.97
2019-01-14T07:34:58.680Z,6.43
2019-01-14T07:37:25.311Z,6.03
2019-01-14T07:39:51.719Z,5.47
2019-01-14T07:42:18.233Z,5.30
2019-01-14T07:44:44.726Z,6.37
2019-01-14T07:47:11.238Z,6.87
2019-01-14T07:49:37.838Z,5.77
2019-01-14T07:52:04.483Z,4.43
2019-01-14T07:54:30.876Z,5.50
2019-01-14T07:56:57.380Z,5.03
2019-01-14T07:59:23.983Z,4.30
2019-01-14T08:01:50.623Z,3.50
2019-01-14T08:04:18.120Z,3.90
2019-01-14T08:06:44.840Z,3.77
2019-01-14T08:09:11.452Z,3.20
2019-01-14T08:11:37.942Z,3.53
2019-01-14T08:14:04.758Z,3.30
2019-01-14T08:16:31.340Z,2.90
2019-01-14T08:18:57.849Z,3.23
2019-01-14T08:21:24.355Z,3.63
2019-01-14T08:23:50.875Z,3.67
2019-01-14T08:26:17.363Z,4.70
2019-01-14T08:28:44.074Z,5.83
2019-01-14T08:31:10.552Z,6.20
2019-01-14T08:33:37.090Z,5.33
2019-01-14T08:36:03.686Z,5.13
2019-01-14T08:38:30.183Z,4.47
2019-01-14T08:40:57.793Z,4.13
2019-01-14T08:43:26.368Z,5.83
2019-01-14T08:45:55.042Z,4.40
2019-01-14T08:48:21.586Z,6.80
2019-01-14T08:50:48.140Z,4.77
2019-01-14T08:53:14.778Z,4.80
2019-01-14T08:55:41.170Z,4.13
2019-01-14T08:58:07.896Z,3.60
2019-01-14T09:00:34.507Z,3.27
2019-01-14T09:03:01.146Z,3.50
2019-01-14T09:05:27.727Z,3.33
2019-01-14T09:07:54.288Z,3.27
2019-01-14T09:10:22.362Z,3.93
2019-01-14T09:12:48.986Z,3.73
2019-01-14T09:15:17.173Z,3.60
2019-01-14T09:17:44.652Z,4.50
2019-01-14T09:20:13.967Z,4.80
2019-01-14T09:22:40.662Z,4.60
2019-01-14T09:25:08.117Z,5.03
2019-01-14T09:27:34.756Z,5.10
2019-01-14T09:30:01.771Z,4.63
2019-01-14T09:32:28.389Z,5.10
2019-01-14T09:34:54.994Z,4.97
2019-01-14T09:37:21.565Z,5.37
2019-01-14T09:39:48.172Z,4.60
2019-01-14T09:42:14.559Z,4.37
2019-01-14T09:44:40.976Z,4.30
2019-01-14T09:47:07.567Z,4.67
2019-01-14T09:49:34.230Z,4.47
2019-01-14T09:52:00.608Z,4.00
2019-01-14T09:54:27.223Z,4.47
2019-01-14T09:56:53.833Z,4.37
2019-01-14T09:59:20.360Z,4.30
2019-01-14T10:01:46.942Z,3.87
2019-01-14T10:04:13.512Z,4.77
2019-01-14T10:06:40.208Z,4.63
2019-01-14T10:09:07.121Z,4.07
2019-01-14T10:11:33.699Z,4.10
2019-01-14T10:14:04.026Z,5.17
2019-01-14T10:16:30.755Z,3.70
2019-01-14T10:18:57.438Z,3.43
2019-01-14T10:21:24.163Z,2.73
2019-01-14T10:23:50.824Z,2.40
2019-01-14T10:26:17.575Z,2.60
2019-01-14T10:28:44.228Z,2.63
2019-01-14T10:31:11.071Z,2.80
2019-01-14T10:33:37.589Z,3.10
2019-01-14T10:36:04.169Z,2.30
2019-01-14T10:38:30.695Z,2.10
2019-01-14T10:40:57.203Z,2.23
2019-01-14T10:43:23.615Z,2.90
2019-01-14T10:45:50.199Z,2.47
2019-01-14T10:48:16.906Z,2.27
2019-01-14T10:50:43.492Z,2.07
2019-01-14T10:53:10.113Z,2.40
2019-01-14T10:55:36.750Z,2.90
2019-01-14T10:58:03.477Z,2.53
2019-01-14T11:00:30.110Z,3.27
2019-01-14T11:02:56.832Z,2.73
2019-01-14T11:05:26.420Z,3.37
2019-01-14T11:07:53.115Z,2.20
2019-01-14T11:10:19.743Z,2.50
2019-01-14T11:12:46.230Z,3.20
2019-01-14T11:15:15.384Z,3.33
2019-01-14T11:17:41.940Z,3.77
2019-01-14T11:20:17.382Z,2.80
2019-01-14T11:22:44.087Z,3.13
2019-01-14T11:25:10.738Z,3.03
2019-01-14T11:27:38.133Z,3.67
2019-01-14T11:30:11.068Z,2.70
2019-01-14T11:32:37.467Z,2.20
2019-01-14T11:35:06.123Z,2.47
2019-01-14T11:37:32.703Z,2.03
2019-01-14T11:39:59.373Z,2.17
2019-01-14T11:42:26.087Z,2.30
2019-01-14T11:44:52.705Z,2.07
2019-01-14T11:47:19.317Z,2.83
2019-01-14T11:49:45.862Z,2.00
2019-01-14T11:52:12.361Z,2.20
2019-01-14T11:54:39.003Z,2.50
2019-01-14T11:57:05.639Z,2.60
2019-01-14T11:59:32.302Z,3.40
2019-01-14T12:01:58.890Z,3.50
2019-01-14T12:04:25.308Z,2.67
2019-01-14T12:06:51.916Z,3.10
2019-01-14T12:09:18.454Z,2.17
2019-01-14T12:11:45.034Z,3.80
2019-01-14T12:14:11.704Z,2.67
2019-01-14T12:16:39.493Z,2.23
2019-01-14T12:19:06.090Z,2.57
2019-01-14T12:21:32.770Z,2.77
2019-01-14T12:23:59.294Z,2.33
2019-01-14T12:26:25.788Z,2.80
2019-01-14T12:28:52.374Z,2.27
2019-01-14T12:31:18.960Z,2.10
2019-01-14T12:33:45.469Z,2.07
2019-01-14T12:36:11.894Z,1.77
2019-01-14T12:38:38.546Z,1.77
2019-01-14T12:41:05.070Z,1.27
2019-01-14T12:43:31.677Z,1.57
2019-01-14T12:45:58.341Z,1.60
2019-01-14T12:48:24.840Z,2.07
2019-01-14T12:50:51.454Z,2.47
2019-01-14T12:53:18.173Z,2.50
2019-01-14T12:55:44.699Z,2.67
2019-01-14T12:58:11.342Z,3.63
2019-01-14T13:00:37.996Z,2.83
2019-01-14T13:03:04.668Z,2.30
2019-01-14T13:05:31.296Z,1.63
2019-01-14T13:07:58.000Z,2.23
2019-01-14T13:10:24.657Z,2.97
2019-01-14T13:12:51.378Z,2.67
2019-01-14T13:15:20.320Z,3.10
2019-01-14T13:17:46.961Z,2.20
2019-01-14T13:20:17.300Z,2.30
2019-01-14T13:22:44.195Z,2.50
2019-01-14T13:25:11.037Z,2.27
2019-01-14T13:27:38.254Z,2.67
2019-01-14T13:30:11.189Z,3.13
2019-01-14T13:32:37.667Z,2.07
2019-01-14T13:35:04.889Z,2.63
2019-01-14T13:37:31.428Z,2.83
2019-01-14T13:39:58.031Z,1.87
2019-01-14T13:42:24.618Z,2.50
2019-01-14T13:44:51.220Z,2.20
2019-01-14T13:47:17.633Z,1.93
2019-01-14T13:49:44.238Z,1.63
2019-01-14T13:52:10.860Z,2.10
2019-01-14T13:54:37.476Z,1.83
2019-01-14T13:57:04.142Z,2.13
2019-01-14T13:59:30.516Z,2.20
2019-01-14T14:01:57.174Z,2.00
2019-01-14T14:04:23.778Z,2.60
2019-01-14T14:06:50.306Z,2.40
2019-01-14T14:09:16.914Z,2.40
2019-01-14T14:11:43.561Z,3.10
2019-01-14T14:14:10.198Z,2.70
2019-01-14T14:16:36.920Z,2.30
2019-01-14T14:19:03.544Z,1.50
2019-01-14T14:21:30.045Z,1.93
2019-01-14T14:23:57.535Z,2.23
2019-01-14T14:26:24.125Z,1.97
2019-01-14T14:28:50.725Z,1.70
2019-01-14T14:31:17.376Z,2.30
2019-01-14T14:33:43.966Z,2.20
2019-01-14T14:36:10.655Z,2.70
2019-01-14T14:38:37.286Z,2.57
2019-01-14T14:41:03.820Z,3.03
2019-01-14T14:43:30.390Z,3.00
2019-01-14T14:45:56.842Z,2.93
2019-01-14T14:48:23.244Z,3.47
2019-01-14T14:50:49.873Z,2.77
2019-01-14T14:53:16.467Z,2.50
2019-01-14T14:55:43.085Z,2.67
2019-01-14T14:58:09.700Z,2.30
2019-01-14T15:00:36.294Z,2.13
2019-01-14T15:03:03.683Z,1.83
2019-01-14T15:05:31.125Z,1.53
2019-01-14T15:07:57.672Z,2.10
2019-01-14T15:10:24.201Z,2.40
2019-01-14T15:12:50.850Z,1.60
2019-01-14T15:15:19.391Z,1.83
2019-01-14T15:17:45.935Z,2.20
2019-01-14T15:20:17.361Z,1.63
2019-01-14T15:22:44.241Z,1.60
2019-01-14T15:25:10.814Z,1.80
2019-01-14T15:27:37.478Z,1.90
2019-01-14T15:30:07.691Z,1.47
2019-01-14T15:32:34.242Z,1.77
2019-01-14T15:35:00.981Z,1.37
2019-01-14T15:37:27.521Z,1.50
2019-01-14T15:39:54.138Z,1.40
2019-01-14T15:42:20.818Z,1.40
2019-01-14T15:44:47.239Z,2.10
2019-01-14T15:47:13.775Z,1.50
2019-01-14T15:49:40.237Z,1.63
2019-01-14T15:52:06.936Z,1.80
2019-01-14T15:54:33.444Z,1.47
2019-01-14T15:57:00.020Z,1.50
2019-01-14T15:59:26.520Z,1.60
2019-01-14T16:01:53.144Z,1.53
2019-01-14T16:04:19.768Z,1.47
2019-01-14T16:06:46.287Z,1.70
2019-01-14T16:09:13.627Z,1.20
2019-01-14T16:11:40.196Z,1.60
2019-01-14T16:14:06.804Z,1.80
2019-01-14T16:16:33.395Z,1.70
2019-01-14T16:19:00.040Z,1.67
2019-01-14T16:21:26.775Z,2.27
2019-01-14T16:23:53.410Z,2.30
2019-01-14T16:26:19.822Z,3.03
2019-01-14T16:28:46.418Z,3.30
2019-01-14T16:31:12.996Z,3.23
2019-01-14T16:33:39.538Z,3.03
2019-01-14T16:36:06.041Z,3.30
2019-01-14T16:38:32.666Z,3.83
2019-01-14T16:40:59.284Z,4.50
2019-01-14T16:43:25.836Z,5.17
2019-01-14T16:45:52.465Z,3.73
2019-01-14T16:48:19.122Z,4.47
2019-01-14T16:50:45.606Z,4.40
2019-01-14T16:53:12.253Z,4.50
2019-01-14T16:55:40.746Z,3.57
2019-01-14T16:58:07.324Z,3.40
2019-01-14T17:00:33.960Z,2.73
2019-01-14T17:03:00.574Z,2.03
2019-01-14T17:05:27.204Z,2.53
2019-01-14T17:07:53.887Z,2.17
2019-01-14T17:10:25.153Z,2.33
2019-01-14T17:12:49.765Z,2.60
2019-01-14T17:15:16.368Z,2.60
2019-01-14T17:17:43.115Z,2.43
2019-01-14T17:20:17.504Z,3.23
2019-01-14T17:22:44.035Z,2.83
2019-01-14T17:25:10.783Z,2.60
2019-01-14T17:27:37.386Z,3.07
2019-01-14T17:30:10.351Z,2.77
2019-01-14T17:32:36.896Z,2.70
2019-01-14T17:35:05.014Z,3.20
2019-01-14T17:37:31.601Z,3.63
2019-01-14T17:39:58.193Z,2.87
2019-01-14T17:42:24.874Z,3.33
2019-01-14T17:44:51.337Z,4.10
2019-01-14T17:47:17.875Z,3.63
2019-01-14T17:49:44.411Z,3.27
2019-01-14T17:52:11.174Z,4.83
2019-01-14T17:54:37.582Z,5.83
2019-01-14T17:57:04.110Z,4.57
2019-01-14T17:59:30.753Z,5.23
2019-01-14T18:01:57.340Z,5.93
2019-01-14T18:04:23.967Z,6.40
2019-01-14T18:06:50.465Z,6.87
2019-01-14T18:09:16.892Z,7.10
2019-01-14T18:11:43.501Z,5.27
2019-01-14T18:14:10.127Z,5.43
2019-01-14T18:16:37.750Z,3.93
2019-01-14T18:19:04.381Z,3.30
2019-01-14T18:21:31.004Z,3.07
2019-01-14T18:23:57.664Z,3.67
2019-01-14T18:26:24.390Z,3.10
2019-01-14T18:28:51.033Z,2.73
2019-01-14T18:31:17.561Z,3.00
2019-01-14T18:33:44.140Z,2.97
2019-01-14T18:36:10.757Z,3.27
2019-01-14T18:38:37.568Z,3.60
2019-01-14T18:41:04.198Z,3.60
2019-01-14T18:43:30.595Z,2.87
2019-01-14T18:45:57.022Z,3.00
2019-01-14T18:48:23.693Z,2.60
2019-01-14T18:50:51.133Z,3.17
2019-01-14T18:53:17.719Z,3.73
2019-01-14T18:55:44.319Z,3.30
2019-01-14T18:58:10.952Z,3.07
2019-01-14T19:00:37.814Z,2.80
2019-01-14T19:03:04.525Z,2.67
2019-01-14T19:05:31.224Z,2.53
2019-01-14T19:07:57.710Z,2.63
2019-01-14T19:10:24.541Z,2.90
2019-01-14T19:12:51.062Z,3.97
2019-01-14T19:15:18.183Z,2.93
2019-01-14T19:17:44.953Z,2.87
2019-01-14T19:20:14.850Z,2.67
2019-01-14T19:22:41.454Z,2.70
2019-01-14T19:25:08.264Z,2.63
2019-01-14T19:27:34.941Z,2.70
2019-01-14T19:30:01.995Z,2.63
2019-01-14T19:32:28.628Z,2.80
2019-01-14T19:34:55.299Z,2.87
2019-01-14T19:37:22.356Z,2.30
2019-01-14T19:39:48.986Z,3.00
2019-01-14T19:42:15.555Z,4.20
2019-01-14T19:44:42.120Z,6.67
2019-01-14T19:47:08.751Z,9.10
2019-01-14T19:49:35.371Z,5.60
2019-01-14T19:52:02.333Z,3.67
2019-01-14T19:54:29.211Z,3.00
2019-01-14T19:56:55.974Z,4.13
2019-01-14T20:02:29.625Z,3.63
2019-01-14T20:04:56.196Z,3.20
2019-01-14T20:07:22.843Z,5.77
2019-01-14T20:09:49.515Z,5.47
2019-01-14T20:12:16.245Z,4.77
2019-01-14T20:14:42.772Z,5.07
2019-01-14T20:17:09.405Z,4.80
2019-01-14T20:19:36.197Z,4.80
2019-01-14T20:22:02.973Z,4.13
2019-01-14T20:24:30.731Z,3.10
2019-01-14T20:26:57.561Z,3.30
2019-01-14T20:29:24.297Z,3.53
2019-01-14T20:31:53.060Z,2.97
2019-01-14T20:34:19.730Z,2.97
2019-01-14T20:36:46.471Z,3.00
2019-01-14T20:39:13.077Z,3.23
2019-01-14T20:41:39.669Z,3.27
2019-01-14T20:44:06.331Z,3.53
2019-01-14T20:46:34.181Z,3.63
2019-01-14T20:49:01.123Z,3.30
2019-01-14T20:51:28.141Z,3.30
2019-01-14T20:53:55.417Z,3.70
2019-01-14T20:56:22.248Z,3.97
2019-01-14T20:58:48.992Z,4.33
2019-01-14T21:01:16.777Z,3.43
2019-01-14T21:03:45.397Z,3.73
2019-01-14T21:06:12.168Z,4.00
2019-01-14T21:08:38.897Z,4.00
2019-01-14T21:11:05.603Z,4.50
2019-01-14T21:13:32.254Z,4.03
2019-01-14T21:16:02.833Z,3.97
2019-01-14T21:18:29.855Z,3.30
2019-01-14T21:20:56.551Z,3.70
2019-01-14T21:23:23.434Z,3.63
2019-01-14T21:25:50.388Z,3.37
2019-01-14T21:28:16.997Z,3.10
2019-01-14T21:30:45.911Z,2.90
2019-01-14T21:33:12.555Z,3.27
2019-01-14T21:35:39.210Z,2.80
2019-01-14T21:38:05.887Z,3.90
2019-01-14T21:40:32.597Z,3.33
2019-01-14T21:42:59.266Z,3.67
2019-01-14T21:45:25.907Z,4.20
2019-01-14T21:47:52.699Z,3.80
2019-01-14T21:50:19.815Z,3.30
2019-01-14T21:52:46.593Z,3.77
2019-01-14T21:55:15.724Z,3.97
2019-01-14T21:57:42.400Z,4.50
2019-01-14T22:00:14.884Z,3.60
2019-01-14T22:02:43.208Z,4.10
2019-01-14T22:05:09.817Z,4.23
2019-01-14T22:07:36.400Z,3.70
2019-01-14T22:10:09.247Z,4.37
2019-01-14T22:12:36.836Z,3.63
2019-01-14T22:15:06.084Z,4.17
2019-01-14T22:17:33.189Z,3.87
2019-01-14T22:19:59.791Z,4.03
2019-01-14T22:22:26.761Z,4.30
2019-01-14T22:24:53.369Z,4.13
2019-01-14T22:27:19.985Z,4.40
2019-01-14T22:29:46.889Z,4.00
2019-01-14T22:32:13.523Z,4.87
2019-01-14T22:34:40.524Z,4.60
2019-01-14T22:37:08.943Z,4.70
2019-01-14T22:39:35.894Z,5.03
2019-01-14T22:42:02.870Z,5.60
2019-01-14T22:44:29.412Z,9.40
2019-01-14T22:46:56.118Z,7.77
2019-01-14T22:49:22.764Z,8.10
2019-01-14T22:51:49.305Z,6.70
2019-01-14T22:54:15.807Z,7.27
2019-01-14T22:56:42.747Z,5.80
2019-01-14T22:59:10.647Z,6.30
2019-01-14T23:01:39.312Z,5.87
2019-01-14T23:04:06.083Z,5.43
2019-01-14T23:06:33.720Z,6.17
2019-01-14T23:09:00.902Z,5.97
2019-01-14T23:11:27.699Z,6.00
2019-01-14T23:13:56.142Z,5.80
2019-01-14T23:16:22.945Z,4.60
2019-01-14T23:18:50.256Z,4.77
2019-01-14T23:21:16.903Z,5.43
2019-01-14T23:23:43.582Z,4.80
2019-01-14T23:26:10.232Z,5.60
2019-01-14T23:28:36.925Z,4.93
2019-01-14T23:31:03.571Z,4.90
2019-01-14T23:33:30.233Z,4.80
2019-01-14T23:35:56.750Z,5.30
2019-01-14T23:38:23.604Z,5.70
2019-01-14T23:40:50.331Z,5.37
2019-01-14T23:43:20.161Z,5.93
2019-01-14T23:45:47.907Z,5.67
2019-01-14T23:48:14.878Z,5.33
2019-01-14T23:50:41.525Z,5.83
2019-01-14T23:53:08.336Z,7.10
2019-01-14T23:55:35.017Z,6.97
2019-01-14T23:58:04.519Z,6.77
